sensor_id;sensor_type;location;lat;lon;timestamp;pressure;altitude;pressure_sealevel;temperature;humidity
59329;BME280;45100;46.926;7.452;2023-05-20T00:00:04;95202.69;;;12.23;77.64
59329;BME280;45100;46.926;7.452;2023-05-20T00:02:34;95196.09;;;12.22;78.10
59329;BME280;45100;46.926;7.452;2023-05-20T00:05:05;95192.48;;;12.20;78.16
59329;BME280;45100;46.926;7.452;2023-05-20T00:07:35;95196.91;;;12.17;78.35
59329;BME280;45100;46.926;7.452;2023-05-20T00:10:06;95195.62;;;12.14;78.81
59329;BME280;45100;46.926;7.452;2023-05-20T00:12:39;95195.28;;;12.13;79.08
59329;BME280;45100;46.926;7.452;2023-05-20T00:20:14;95190.14;;;12.11;79.48
59329;BME280;45100;46.926;7.452;2023-05-20T00:22:44;95193.60;;;12.11;79.55
59329;BME280;45100;46.926;7.452;2023-05-20T00:25:15;95188.80;;;12.10;79.67
59329;BME280;45100;46.926;7.452;2023-05-20T00:27:46;95188.06;;;12.09;79.51
59329;BME280;45100;46.926;7.452;2023-05-20T00:30:15;95183.48;;;12.07;79.69
59329;BME280;45100;46.926;7.452;2023-05-20T00:32:46;95183.11;;;12.07;79.64
59329;BME280;45100;46.926;7.452;2023-05-20T00:35:17;95180.98;;;12.06;79.88
59329;BME280;45100;46.926;7.452;2023-05-20T00:37:48;95184.55;;;12.06;79.92
59329;BME280;45100;46.926;7.452;2023-05-20T00:40:19;95187.06;;;12.07;80.04
59329;BME280;45100;46.926;7.452;2023-05-20T00:42:50;95186.35;;;12.07;80.16
59329;BME280;45100;46.926;7.452;2023-05-20T00:45:20;95182.24;;;12.06;79.81
59329;BME280;45100;46.926;7.452;2023-05-20T00:47:51;95180.46;;;12.06;79.74
59329;BME280;45100;46.926;7.452;2023-05-20T00:50:22;95175.69;;;12.05;79.75
59329;BME280;45100;46.926;7.452;2023-05-20T00:52:55;95166.58;;;12.03;79.66
59329;BME280;45100;46.926;7.452;2023-05-20T00:55:24;95169.09;;;12.02;79.17
59329;BME280;45100;46.926;7.452;2023-05-20T00:57:54;95165.67;;;12.01;79.22
59329;BME280;45100;46.926;7.452;2023-05-20T01:00:25;95159.12;;;12.00;79.21
59329;BME280;45100;46.926;7.452;2023-05-20T01:02:55;95154.84;;;12.00;79.30
59329;BME280;45100;46.926;7.452;2023-05-20T01:05:26;95164.39;;;11.96;79.36
59329;BME280;45100;46.926;7.452;2023-05-20T01:07:56;95164.14;;;11.91;79.59
59329;BME280;45100;46.926;7.452;2023-05-20T01:10:30;95166.52;;;11.89;79.83
59329;BME280;45100;46.926;7.452;2023-05-20T01:13:00;95162.95;;;11.87;79.92
59329;BME280;45100;46.926;7.452;2023-05-20T01:15:29;95164.79;;;11.87;79.94
59329;BME280;45100;46.926;7.452;2023-05-20T01:18:02;95160.89;;;11.88;79.89
59329;BME280;45100;46.926;7.452;2023-05-20T01:20:30;95158.26;;;11.89;79.83
59329;BME280;45100;46.926;7.452;2023-05-20T01:22:59;95152.88;;;11.87;79.50
59329;BME280;45100;46.926;7.452;2023-05-20T01:25:29;95149.70;;;11.85;79.51
59329;BME280;45100;46.926;7.452;2023-05-20T01:28:01;95152.98;;;11.84;79.76
59329;BME280;45100;46.926;7.452;2023-05-20T01:30:34;95149.71;;;11.84;79.83
59329;BME280;45100;46.926;7.452;2023-05-20T01:33:04;95143.16;;;11.83;80.01
59329;BME280;45100;46.926;7.452;2023-05-20T01:35:32;95139.53;;;11.83;79.83
59329;BME280;45100;46.926;7.452;2023-05-20T01:40:35;95141.23;;;11.81;79.66
59329;BME280;45100;46.926;7.452;2023-05-20T01:43:05;95142.06;;;11.80;79.71
59329;BME280;45100;46.926;7.452;2023-05-20T01:45:36;95141.16;;;11.78;79.79
59329;BME280;45100;46.926;7.452;2023-05-20T01:48:07;95137.31;;;11.77;79.84
59329;BME280;45100;46.926;7.452;2023-05-20T01:50:37;95139.15;;;11.76;79.66
59329;BME280;45100;46.926;7.452;2023-05-20T01:53:09;95138.48;;;11.76;79.81
59329;BME280;45100;46.926;7.452;2023-05-20T01:55:37;95141.55;;;11.76;79.99
59329;BME280;45100;46.926;7.452;2023-05-20T01:58:07;95141.25;;;11.74;80.24
59329;BME280;45100;46.926;7.452;2023-05-20T02:00:38;95141.03;;;11.74;80.36
59329;BME280;45100;46.926;7.452;2023-05-20T02:03:09;95143.08;;;11.73;80.47
59329;BME280;45100;46.926;7.452;2023-05-20T02:05:41;95140.71;;;11.74;80.44
59329;BME280;45100;46.926;7.452;2023-05-20T02:08:11;95144.53;;;11.73;80.54
59329;BME280;45100;46.926;7.452;2023-05-20T02:10:41;95142.23;;;11.74;80.38
59329;BME280;45100;46.926;7.452;2023-05-20T02:15:45;95144.00;;;11.74;80.13
59329;BME280;45100;46.926;7.452;2023-05-20T02:18:18;95143.64;;;11.75;80.41
59329;BME280;45100;46.926;7.452;2023-05-20T02:20:46;95140.78;;;11.75;80.42
59329;BME280;45100;46.926;7.452;2023-05-20T02:23:16;95135.64;;;11.75;80.47
59329;BME280;45100;46.926;7.452;2023-05-20T02:25:46;95141.30;;;11.76;80.70
59329;BME280;45100;46.926;7.452;2023-05-20T02:28:17;95142.00;;;11.76;80.52
59329;BME280;45100;46.926;7.452;2023-05-20T02:30:50;95135.50;;;11.75;80.55
59329;BME280;45100;46.926;7.452;2023-05-20T02:33:19;95128.62;;;11.74;80.55
59329;BME280;45100;46.926;7.452;2023-05-20T02:35:48;95117.56;;;11.72;80.35
59329;BME280;45100;46.926;7.452;2023-05-20T02:38:19;95119.72;;;11.68;80.63
59329;BME280;45100;46.926;7.452;2023-05-20T02:40:50;95120.25;;;11.67;80.57
59329;BME280;45100;46.926;7.452;2023-05-20T02:43:21;95116.41;;;11.64;80.58
59329;BME280;45100;46.926;7.452;2023-05-20T02:45:52;95114.89;;;11.62;80.70
59329;BME280;45100;46.926;7.452;2023-05-20T02:48:23;95112.73;;;11.59;80.89
59329;BME280;45100;46.926;7.452;2023-05-20T02:50:54;95114.23;;;11.56;80.96
59329;BME280;45100;46.926;7.452;2023-05-20T02:53:24;95119.80;;;11.51;81.10
59329;BME280;45100;46.926;7.452;2023-05-20T02:55:56;95125.62;;;11.47;81.40
59329;BME280;45100;46.926;7.452;2023-05-20T02:58:27;95126.34;;;11.44;81.63
59329;BME280;45100;46.926;7.452;2023-05-20T03:00:57;95118.80;;;11.45;81.89
59329;BME280;45100;46.926;7.452;2023-05-20T03:03:29;95118.44;;;11.45;81.90
59329;BME280;45100;46.926;7.452;2023-05-20T03:05:57;95120.80;;;11.45;81.92
59329;BME280;45100;46.926;7.452;2023-05-20T03:08:28;95119.00;;;11.44;81.75
59329;BME280;45100;46.926;7.452;2023-05-20T03:10:59;95118.66;;;11.43;81.80
59329;BME280;45100;46.926;7.452;2023-05-20T03:13:29;95119.51;;;11.42;81.79
59329;BME280;45100;46.926;7.452;2023-05-20T03:16:01;95120.97;;;11.42;81.96
59329;BME280;45100;46.926;7.452;2023-05-20T03:18:31;95125.25;;;11.43;82.06
59329;BME280;45100;46.926;7.452;2023-05-20T03:21:02;95117.47;;;11.45;82.07
59329;BME280;45100;46.926;7.452;2023-05-20T03:23:32;95114.52;;;11.46;81.93
59329;BME280;45100;46.926;7.452;2023-05-20T03:26:03;95113.69;;;11.45;81.85
59329;BME280;45100;46.926;7.452;2023-05-20T03:28:35;95114.58;;;11.43;81.91
59329;BME280;45100;46.926;7.452;2023-05-20T03:31:04;95117.27;;;11.43;82.02
59329;BME280;45100;46.926;7.452;2023-05-20T03:33:36;95111.92;;;11.41;81.65
59329;BME280;45100;46.926;7.452;2023-05-20T03:36:06;95115.12;;;11.39;81.56
59329;BME280;45100;46.926;7.452;2023-05-20T03:38:36;95114.31;;;11.37;81.51
59329;BME280;45100;46.926;7.452;2023-05-20T03:41:07;95112.88;;;11.33;81.61
59329;BME280;45100;46.926;7.452;2023-05-20T03:43:38;95115.88;;;11.31;81.81
59329;BME280;45100;46.926;7.452;2023-05-20T03:46:08;95122.61;;;11.29;82.12
59329;BME280;45100;46.926;7.452;2023-05-20T03:48:39;95118.57;;;11.28;82.33
59329;BME280;45100;46.926;7.452;2023-05-20T03:51:10;95116.74;;;11.29;82.32
59329;BME280;45100;46.926;7.452;2023-05-20T03:53:41;95120.48;;;11.33;82.30
59329;BME280;45100;46.926;7.452;2023-05-20T03:56:12;95123.70;;;11.34;82.17
59329;BME280;45100;46.926;7.452;2023-05-20T03:58:43;95115.30;;;11.35;81.97
59329;BME280;45100;46.926;7.452;2023-05-20T04:01:14;95112.59;;;11.37;81.83
59329;BME280;45100;46.926;7.452;2023-05-20T04:03:44;95113.84;;;11.38;81.99
59329;BME280;45100;46.926;7.452;2023-05-20T04:06:16;95112.35;;;11.38;81.73
59329;BME280;45100;46.926;7.452;2023-05-20T04:08:46;95109.83;;;11.39;81.76
59329;BME280;45100;46.926;7.452;2023-05-20T04:11:16;95109.50;;;11.39;81.73
59329;BME280;45100;46.926;7.452;2023-05-20T04:13:46;95103.35;;;11.39;81.79
59329;BME280;45100;46.926;7.452;2023-05-20T04:16:17;95103.45;;;11.40;82.03
59329;BME280;45100;46.926;7.452;2023-05-20T04:18:48;95098.09;;;11.42;82.01
59329;BME280;45100;46.926;7.452;2023-05-20T04:21:19;95098.23;;;11.44;81.87
59329;BME280;45100;46.926;7.452;2023-05-20T04:23:48;95109.50;;;11.46;81.80
59329;BME280;45100;46.926;7.452;2023-05-20T04:26:20;95111.11;;;11.48;81.71
59329;BME280;45100;46.926;7.452;2023-05-20T04:28:50;95109.28;;;11.51;81.86
59329;BME280;45100;46.926;7.452;2023-05-20T04:31:26;95103.05;;;11.53;81.78
59329;BME280;45100;46.926;7.452;2023-05-20T04:33:55;95107.96;;;11.58;81.73
59329;BME280;45100;46.926;7.452;2023-05-20T04:36:22;95105.83;;;11.62;81.27
59329;BME280;45100;46.926;7.452;2023-05-20T04:38:52;95102.59;;;11.67;81.07
59329;BME280;45100;46.926;7.452;2023-05-20T04:41:23;95104.23;;;11.71;80.96
59329;BME280;45100;46.926;7.452;2023-05-20T04:43:53;95107.72;;;11.76;80.51
59329;BME280;45100;46.926;7.452;2023-05-20T04:46:25;95110.11;;;11.79;80.37
59329;BME280;45100;46.926;7.452;2023-05-20T04:48:55;95116.31;;;11.81;80.22
59329;BME280;45100;46.926;7.452;2023-05-20T04:51:25;95106.85;;;11.88;80.41
59329;BME280;45100;46.926;7.452;2023-05-20T04:53:56;95097.89;;;12.05;80.48
59329;BME280;45100;46.926;7.452;2023-05-20T04:56:27;95099.31;;;12.30;79.00
59329;BME280;45100;46.926;7.452;2023-05-20T04:58:59;95090.58;;;12.54;78.00
59329;BME280;45100;46.926;7.452;2023-05-20T05:01:29;95094.11;;;12.67;76.69
59329;BME280;45100;46.926;7.452;2023-05-20T05:04:00;95094.20;;;12.71;75.78
59329;BME280;45100;46.926;7.452;2023-05-20T05:06:31;95097.36;;;12.64;75.78
59329;BME280;45100;46.926;7.452;2023-05-20T05:09:01;95097.64;;;12.56;76.09
59329;BME280;45100;46.926;7.452;2023-05-20T05:11:32;95092.38;;;12.48;76.67
59329;BME280;45100;46.926;7.452;2023-05-20T05:14:03;95090.55;;;12.42;77.33
59329;BME280;45100;46.926;7.452;2023-05-20T05:16:34;95088.62;;;12.36;77.63
59329;BME280;45100;46.926;7.452;2023-05-20T05:19:05;95088.68;;;12.30;77.72
59329;BME280;45100;46.926;7.452;2023-05-20T05:21:36;95087.88;;;12.25;78.25
59329;BME280;45100;46.926;7.452;2023-05-20T05:24:06;95087.28;;;12.21;78.44
59329;BME280;45100;46.926;7.452;2023-05-20T05:26:36;95085.07;;;12.18;78.38
59329;BME280;45100;46.926;7.452;2023-05-20T05:29:07;95083.14;;;12.13;78.61
59329;BME280;45100;46.926;7.452;2023-05-20T05:31:38;95078.27;;;12.12;78.92
59329;BME280;45100;46.926;7.452;2023-05-20T05:34:09;95080.56;;;12.13;78.98
59329;BME280;45100;46.926;7.452;2023-05-20T05:36:40;95084.33;;;12.14;78.89
59329;BME280;45100;46.926;7.452;2023-05-20T05:39:11;95086.44;;;12.16;79.04
59329;BME280;45100;46.926;7.452;2023-05-20T05:41:41;95088.55;;;12.19;79.07
59329;BME280;45100;46.926;7.452;2023-05-20T05:44:12;95082.92;;;12.22;79.04
59329;BME280;45100;46.926;7.452;2023-05-20T05:46:43;95079.70;;;12.23;78.80
59329;BME280;45100;46.926;7.452;2023-05-20T05:49:13;95082.17;;;12.25;79.23
59329;BME280;45100;46.926;7.452;2023-05-20T05:51:44;95075.70;;;12.29;79.36
59329;BME280;45100;46.926;7.452;2023-05-20T05:54:14;95070.75;;;12.36;78.85
59329;BME280;45100;46.926;7.452;2023-05-20T05:56:45;95067.91;;;12.44;78.89
59329;BME280;45100;46.926;7.452;2023-05-20T05:59:15;95069.29;;;12.53;78.39
59329;BME280;45100;46.926;7.452;2023-05-20T06:01:46;95072.80;;;12.60;78.18
59329;BME280;45100;46.926;7.452;2023-05-20T06:04:17;95070.02;;;12.61;77.63
59329;BME280;45100;46.926;7.452;2023-05-20T06:06:49;95070.63;;;12.59;77.70
59329;BME280;45100;46.926;7.452;2023-05-20T06:09:18;95070.69;;;12.58;77.81
59329;BME280;45100;46.926;7.452;2023-05-20T06:11:49;95067.59;;;12.59;77.93
59329;BME280;45100;46.926;7.452;2023-05-20T06:14:20;95065.41;;;12.60;78.05
59329;BME280;45100;46.926;7.452;2023-05-20T06:16:50;95068.36;;;12.61;77.96
59329;BME280;45100;46.926;7.452;2023-05-20T06:19:21;95068.24;;;12.62;78.12
59329;BME280;45100;46.926;7.452;2023-05-20T06:21:52;95066.98;;;12.64;78.20
59329;BME280;45100;46.926;7.452;2023-05-20T06:24:23;95068.45;;;12.65;77.65
59329;BME280;45100;46.926;7.452;2023-05-20T06:26:53;95066.66;;;12.64;77.82
59329;BME280;45100;46.926;7.452;2023-05-20T06:29:24;95061.17;;;12.63;77.99
59329;BME280;45100;46.926;7.452;2023-05-20T06:31:55;95056.19;;;12.62;78.37
59329;BME280;45100;46.926;7.452;2023-05-20T06:34:25;95045.16;;;12.64;78.37
59329;BME280;45100;46.926;7.452;2023-05-20T06:36:57;95046.36;;;12.69;78.49
59329;BME280;45100;46.926;7.452;2023-05-20T06:39:27;95051.75;;;12.75;78.49
59329;BME280;45100;46.926;7.452;2023-05-20T06:41:58;95052.35;;;12.83;78.17
59329;BME280;45100;46.926;7.452;2023-05-20T06:44:30;95058.08;;;12.90;77.06
59329;BME280;45100;46.926;7.452;2023-05-20T06:46:59;95054.00;;;12.93;76.22
59329;BME280;45100;46.926;7.452;2023-05-20T06:49:30;95050.48;;;12.92;75.98
59329;BME280;45100;46.926;7.452;2023-05-20T06:52:01;95054.63;;;12.91;76.66
59329;BME280;45100;46.926;7.452;2023-05-20T06:54:39;95055.58;;;12.89;77.18
59329;BME280;45100;46.926;7.452;2023-05-20T06:57:03;95049.22;;;12.91;76.90
59329;BME280;45100;46.926;7.452;2023-05-20T06:59:37;95048.91;;;12.92;76.23
59329;BME280;45100;46.926;7.452;2023-05-20T07:04:38;95043.45;;;12.91;75.51
59329;BME280;45100;46.926;7.452;2023-05-20T07:07:09;95039.91;;;12.90;75.64
59329;BME280;45100;46.926;7.452;2023-05-20T07:09:39;95034.94;;;12.90;75.82
59329;BME280;45100;46.926;7.452;2023-05-20T07:12:09;95039.70;;;12.90;75.77
59329;BME280;45100;46.926;7.452;2023-05-20T07:14:40;95045.34;;;12.95;75.48
59329;BME280;45100;46.926;7.452;2023-05-20T07:17:10;95045.77;;;12.99;74.86
59329;BME280;45100;46.926;7.452;2023-05-20T07:19:40;95042.30;;;13.01;74.71
59329;BME280;45100;46.926;7.452;2023-05-20T07:22:11;95039.72;;;13.03;74.79
59329;BME280;45100;46.926;7.452;2023-05-20T07:24:41;95043.05;;;13.05;74.60
59329;BME280;45100;46.926;7.452;2023-05-20T07:27:12;95040.91;;;13.06;74.47
59329;BME280;45100;46.926;7.452;2023-05-20T07:29:43;95038.02;;;13.09;74.29
59329;BME280;45100;46.926;7.452;2023-05-20T07:32:14;95036.07;;;13.13;73.34
59329;BME280;45100;46.926;7.452;2023-05-20T07:34:44;95039.07;;;13.16;73.16
59329;BME280;45100;46.926;7.452;2023-05-20T07:37:16;95037.72;;;13.20;73.04
59329;BME280;45100;46.926;7.452;2023-05-20T07:39:46;95032.27;;;13.24;73.05
59329;BME280;45100;46.926;7.452;2023-05-20T07:42:17;95028.08;;;13.33;72.96
59329;BME280;45100;46.926;7.452;2023-05-20T07:44:47;95022.66;;;13.42;72.43
59329;BME280;45100;46.926;7.452;2023-05-20T07:47:18;95022.37;;;13.44;71.99
59329;BME280;45100;46.926;7.452;2023-05-20T07:49:49;95025.88;;;13.44;72.04
59329;BME280;45100;46.926;7.452;2023-05-20T07:52:20;95027.09;;;13.45;72.54
59329;BME280;45100;46.926;7.452;2023-05-20T07:54:50;95017.50;;;13.48;72.46
59329;BME280;45100;46.926;7.452;2023-05-20T07:57:21;95018.92;;;13.50;72.75
59329;BME280;45100;46.926;7.452;2023-05-20T07:59:51;95015.02;;;13.54;72.66
59329;BME280;45100;46.926;7.452;2023-05-20T08:02:22;95013.58;;;13.60;73.03
59329;BME280;45100;46.926;7.452;2023-05-20T08:04:53;95019.53;;;13.70;72.56
59329;BME280;45100;46.926;7.452;2023-05-20T08:07:22;95009.00;;;13.78;71.98
59329;BME280;45100;46.926;7.452;2023-05-20T08:09:53;95005.81;;;13.84;72.03
59329;BME280;45100;46.926;7.452;2023-05-20T08:12:24;95009.61;;;13.90;72.27
59329;BME280;45100;46.926;7.452;2023-05-20T08:14:55;95015.12;;;13.95;71.18
59329;BME280;45100;46.926;7.452;2023-05-20T08:19:59;95025.70;;;13.91;71.22
59329;BME280;45100;46.926;7.452;2023-05-20T08:22:28;95024.14;;;13.87;71.69
59329;BME280;45100;46.926;7.452;2023-05-20T08:24:59;95029.64;;;13.85;72.04
59329;BME280;45100;46.926;7.452;2023-05-20T08:27:30;95026.27;;;13.83;71.50
59329;BME280;45100;46.926;7.452;2023-05-20T08:30:01;95020.02;;;13.85;71.66
59329;BME280;45100;46.926;7.452;2023-05-20T08:32:31;95015.77;;;13.95;71.39
59329;BME280;45100;46.926;7.452;2023-05-20T08:35:02;95011.30;;;14.06;71.14
59329;BME280;45100;46.926;7.452;2023-05-20T08:37:32;95006.52;;;14.18;70.70
59329;BME280;45100;46.926;7.452;2023-05-20T08:42:43;95000.41;;;14.40;69.24
59329;BME280;45100;46.926;7.452;2023-05-20T08:45:12;95007.53;;;14.52;69.05
59329;BME280;45100;46.926;7.452;2023-05-20T08:47:40;95006.95;;;14.63;68.94
59329;BME280;45100;46.926;7.452;2023-05-20T08:50:12;95001.78;;;14.77;68.53
59329;BME280;45100;46.926;7.452;2023-05-20T08:52:43;95001.55;;;14.91;68.01
59329;BME280;45100;46.926;7.452;2023-05-20T08:55:15;94995.45;;;15.06;67.18
59329;BME280;45100;46.926;7.452;2023-05-20T08:57:45;94994.66;;;15.21;66.65
59329;BME280;45100;46.926;7.452;2023-05-20T09:00:13;94997.31;;;15.33;65.97
59329;BME280;45100;46.926;7.452;2023-05-20T09:02:43;94999.47;;;15.42;65.39
59329;BME280;45100;46.926;7.452;2023-05-20T09:05:12;95002.62;;;15.47;64.99
59329;BME280;45100;46.926;7.452;2023-05-20T09:07:43;95002.45;;;15.42;64.90
59329;BME280;45100;46.926;7.452;2023-05-20T09:10:13;94997.52;;;15.30;65.73
59329;BME280;45100;46.926;7.452;2023-05-20T09:12:44;94992.95;;;15.24;66.02
59329;BME280;45100;46.926;7.452;2023-05-20T09:15:15;94989.83;;;15.25;65.65
59329;BME280;45100;46.926;7.452;2023-05-20T09:17:48;94984.48;;;15.29;65.88
59329;BME280;45100;46.926;7.452;2023-05-20T09:20:15;94985.58;;;15.32;65.38
59329;BME280;45100;46.926;7.452;2023-05-20T09:22:50;94991.61;;;15.31;65.07
59329;BME280;45100;46.926;7.452;2023-05-20T09:25:20;94999.36;;;15.30;65.02
59329;BME280;45100;46.926;7.452;2023-05-20T09:27:48;95004.36;;;15.22;65.25
59329;BME280;45100;46.926;7.452;2023-05-20T09:30:21;95005.34;;;15.10;65.95
59329;BME280;45100;46.926;7.452;2023-05-20T09:32:54;95007.27;;;14.95;66.56
59329;BME280;45100;46.926;7.452;2023-05-20T09:35:20;95008.22;;;14.82;67.31
59329;BME280;45100;46.926;7.452;2023-05-20T09:37:53;95006.73;;;14.71;68.20
59329;BME280;45100;46.926;7.452;2023-05-20T09:40:25;95002.48;;;14.68;68.40
59329;BME280;45100;46.926;7.452;2023-05-20T09:42:52;95002.45;;;14.72;68.47
59329;BME280;45100;46.926;7.452;2023-05-20T09:45:22;95005.19;;;14.77;68.47
59329;BME280;45100;46.926;7.452;2023-05-20T09:47:51;95002.91;;;14.82;67.92
59329;BME280;45100;46.926;7.452;2023-05-20T09:50:22;94994.75;;;14.85;67.87
59329;BME280;45100;46.926;7.452;2023-05-20T09:52:53;94993.10;;;14.91;68.16
59329;BME280;45100;46.926;7.452;2023-05-20T09:55:23;94997.78;;;15.04;67.84
59329;BME280;45100;46.926;7.452;2023-05-20T09:57:52;95000.81;;;15.16;67.69
59329;BME280;45100;46.926;7.452;2023-05-20T10:00:23;95001.95;;;15.29;66.87
59329;BME280;45100;46.926;7.452;2023-05-20T10:02:53;95000.88;;;15.40;65.93
59329;BME280;45100;46.926;7.452;2023-05-20T10:05:28;95005.23;;;15.47;65.15
59329;BME280;45100;46.926;7.452;2023-05-20T10:10:44;95008.45;;;15.36;65.67
59329;BME280;45100;46.926;7.452;2023-05-20T10:15:46;95000.88;;;15.30;65.47
59329;BME280;45100;46.926;7.452;2023-05-20T10:20:27;94997.20;;;15.22;66.35
59329;BME280;45100;46.926;7.452;2023-05-20T10:23:00;95001.93;;;15.21;66.45
59329;BME280;45100;46.926;7.452;2023-05-20T10:25:28;94999.80;;;15.10;66.72
59329;BME280;45100;46.926;7.452;2023-05-20T10:28:07;94996.40;;;15.02;67.31
59329;BME280;45100;46.926;7.452;2023-05-20T10:30:30;95002.03;;;14.97;67.06
59329;BME280;45100;46.926;7.452;2023-05-20T10:33:04;95004.77;;;14.95;67.20
59329;BME280;45100;46.926;7.452;2023-05-20T10:35:31;95012.41;;;14.95;67.23
59329;BME280;45100;46.926;7.452;2023-05-20T10:38:08;95012.38;;;14.89;66.74
59329;BME280;45100;46.926;7.452;2023-05-20T10:40:31;95014.84;;;14.77;67.64
59329;BME280;45100;46.926;7.452;2023-05-20T10:43:25;95005.42;;;14.62;68.19
59329;BME280;45100;46.926;7.452;2023-05-20T10:45:48;95010.95;;;14.56;68.99
59329;BME280;45100;46.926;7.452;2023-05-20T10:48:04;95009.30;;;14.59;69.25
59329;BME280;45100;46.926;7.452;2023-05-20T10:50:36;95000.52;;;14.65;68.33
59329;BME280;45100;46.926;7.452;2023-05-20T10:53:10;95011.28;;;14.71;69.01
59329;BME280;45100;46.926;7.452;2023-05-20T10:55:37;94997.32;;;14.73;68.62
59329;BME280;45100;46.926;7.452;2023-05-20T10:58:06;94990.95;;;14.76;68.85
59329;BME280;45100;46.926;7.452;2023-05-20T11:00:37;94997.22;;;14.84;68.56
59329;BME280;45100;46.926;7.452;2023-05-20T11:03:08;94995.81;;;14.91;68.51
59329;BME280;45100;46.926;7.452;2023-05-20T11:05:40;95000.97;;;15.03;67.77
59329;BME280;45100;46.926;7.452;2023-05-20T11:08:09;94994.59;;;15.18;67.53
59329;BME280;45100;46.926;7.452;2023-05-20T11:10:40;94989.35;;;15.38;66.75
59329;BME280;45100;46.926;7.452;2023-05-20T11:13:11;94985.68;;;15.62;65.44
59329;BME280;45100;46.926;7.452;2023-05-20T11:15:41;94988.88;;;15.84;64.56
59329;BME280;45100;46.926;7.452;2023-05-20T11:18:12;94990.22;;;16.12;63.97
59329;BME280;45100;46.926;7.452;2023-05-20T11:20:41;94991.92;;;16.39;63.08
59329;BME280;45100;46.926;7.452;2023-05-20T11:23:14;94991.05;;;16.54;61.27
59329;BME280;45100;46.926;7.452;2023-05-20T11:25:43;94992.67;;;16.47;61.77
59329;BME280;45100;46.926;7.452;2023-05-20T11:28:14;94986.96;;;16.26;61.82
59329;BME280;45100;46.926;7.452;2023-05-20T11:30:45;94985.20;;;16.01;62.34
59329;BME280;45100;46.926;7.452;2023-05-20T11:33:17;94981.92;;;15.79;63.50
59329;BME280;45100;46.926;7.452;2023-05-20T11:35:51;94980.53;;;15.69;64.20
59329;BME280;45100;46.926;7.452;2023-05-20T11:38:18;94978.52;;;15.62;64.55
59329;BME280;45100;46.926;7.452;2023-05-20T11:40:52;94979.32;;;15.59;64.81
59329;BME280;45100;46.926;7.452;2023-05-20T11:43:19;94978.78;;;15.59;65.07
59329;BME280;45100;46.926;7.452;2023-05-20T11:45:56;94976.37;;;15.64;64.82
59329;BME280;45100;46.926;7.452;2023-05-20T11:48:19;94973.80;;;15.73;64.46
59329;BME280;45100;46.926;7.452;2023-05-20T11:50:49;94969.27;;;15.85;64.26
59329;BME280;45100;46.926;7.452;2023-05-20T11:53:21;94964.08;;;15.97;63.63
59329;BME280;45100;46.926;7.452;2023-05-20T11:55:58;94956.09;;;16.07;63.25
59329;BME280;45100;46.926;7.452;2023-05-20T11:58:23;94955.82;;;16.10;63.21
59329;BME280;45100;46.926;7.452;2023-05-20T12:00:51;94956.97;;;16.15;62.86
59329;BME280;45100;46.926;7.452;2023-05-20T12:03:21;94960.23;;;16.20;62.92
59329;BME280;45100;46.926;7.452;2023-05-20T12:05:52;94955.40;;;16.30;62.70
59329;BME280;45100;46.926;7.452;2023-05-20T12:10:56;94962.61;;;16.43;62.48
59329;BME280;45100;46.926;7.452;2023-05-20T12:13:26;94966.69;;;16.44;62.40
59329;BME280;45100;46.926;7.452;2023-05-20T12:15:56;94965.98;;;16.40;62.46
59329;BME280;45100;46.926;7.452;2023-05-20T12:18:27;94972.12;;;16.38;62.36
59329;BME280;45100;46.926;7.452;2023-05-20T12:20:59;94974.58;;;16.36;62.60
59329;BME280;45100;46.926;7.452;2023-05-20T12:23:33;94968.39;;;16.37;62.36
59329;BME280;45100;46.926;7.452;2023-05-20T12:25:59;94967.14;;;16.40;62.50
59329;BME280;45100;46.926;7.452;2023-05-20T12:28:31;94968.16;;;16.43;62.82
59329;BME280;45100;46.926;7.452;2023-05-20T12:31:00;94966.05;;;16.41;62.60
59329;BME280;45100;46.926;7.452;2023-05-20T12:33:30;94971.42;;;16.36;63.18
59329;BME280;45100;46.926;7.452;2023-05-20T12:36:01;94962.67;;;16.29;63.19
59329;BME280;45100;46.926;7.452;2023-05-20T12:38:33;94957.84;;;16.26;63.60
59329;BME280;45100;46.926;7.452;2023-05-20T12:41:03;94959.08;;;16.25;63.13
59329;BME280;45100;46.926;7.452;2023-05-20T12:43:36;94955.78;;;16.12;63.34
59329;BME280;45100;46.926;7.452;2023-05-20T12:46:04;94955.94;;;16.12;64.06
59329;BME280;45100;46.926;7.452;2023-05-20T12:48:36;94942.34;;;16.16;63.84
59329;BME280;45100;46.926;7.452;2023-05-20T12:51:06;94941.93;;;16.22;64.11
59329;BME280;45100;46.926;7.452;2023-05-20T12:53:37;94945.72;;;16.32;63.60
59329;BME280;45100;46.926;7.452;2023-05-20T12:56:08;94948.86;;;16.40;63.19
59329;BME280;45100;46.926;7.452;2023-05-20T13:01:12;94945.17;;;16.38;63.42
59329;BME280;45100;46.926;7.452;2023-05-20T13:03:42;94949.31;;;16.36;63.49
59329;BME280;45100;46.926;7.452;2023-05-20T13:06:12;94951.16;;;16.31;63.68
59329;BME280;45100;46.926;7.452;2023-05-20T13:08:44;94958.28;;;16.28;64.30
59329;BME280;45100;46.926;7.452;2023-05-20T13:11:14;94957.24;;;16.29;63.86
59329;BME280;45100;46.926;7.452;2023-05-20T13:13:44;94964.42;;;16.33;63.73
59329;BME280;45100;46.926;7.452;2023-05-20T13:16:17;94960.18;;;16.33;63.33
59329;BME280;45100;46.926;7.452;2023-05-20T13:18:45;94963.88;;;16.31;63.67
59329;BME280;45100;46.926;7.452;2023-05-20T13:21:16;94957.61;;;16.31;64.03
59329;BME280;45100;46.926;7.452;2023-05-20T13:23:47;94958.06;;;16.30;64.21
59329;BME280;45100;46.926;7.452;2023-05-20T13:26:17;94961.70;;;16.30;64.13
59329;BME280;45100;46.926;7.452;2023-05-20T13:28:46;94962.09;;;16.31;64.39
59329;BME280;45100;46.926;7.452;2023-05-20T13:31:17;94960.45;;;16.33;64.13
59329;BME280;45100;46.926;7.452;2023-05-20T13:33:48;94958.42;;;16.31;64.13
59329;BME280;45100;46.926;7.452;2023-05-20T13:36:18;94954.42;;;16.26;64.47
59329;BME280;45100;46.926;7.452;2023-05-20T13:38:49;94952.84;;;16.21;64.90
59329;BME280;45100;46.926;7.452;2023-05-20T13:41:19;94955.45;;;16.14;65.35
59329;BME280;45100;46.926;7.452;2023-05-20T13:46:23;94951.36;;;16.07;65.74
59329;BME280;45100;46.926;7.452;2023-05-20T13:48:53;94952.73;;;16.06;66.05